Terminal Aerodrome Forecast
Issued by NWS

Home | Current Version | Previous Version | Graphics & Text | Print | Product List | Glossary On
Versions: 1 2 3 4 5 6 7 8 9 10 11 12 13
000
FTUS43 KMPX 240655 AAA
TAFAXN
TAF AMD
KAXN 240655Z 2407/2506 28007KT P6SM SKC
     FM241600 30015G22KT P6SM FEW040 SCT250
     FM250100 29006KT P6SM SKC=

USA.gov is the U.S. government's official web portal to all federal, state and local government web resources and services.